sensor_id;sensor_type;location;lat;lon;timestamp;temperature;humidity
46378;DHT22;32083;47.360;9.650;2023-02-15T00:02:02;0.00;99.90
46378;DHT22;32083;47.360;9.650;2023-02-15T00:04:51;0.10;99.90
46378;DHT22;32083;47.360;9.650;2023-02-15T00:07:19;0.10;99.90
46378;DHT22;32083;47.360;9.650;2023-02-15T00:09:51;0.10;99.90
46378;DHT22;32083;47.360;9.650;2023-02-15T00:12:17;0.20;99.90
46378;DHT22;32083;47.360;9.650;2023-02-15T00:14:46;0.10;99.90
46378;DHT22;32083;47.360;9.650;2023-02-15T00:17:15;0.00;99.90
46378;DHT22;32083;47.360;9.650;2023-02-15T00:22:06;0.00;99.90
46378;DHT22;32083;47.360;9.650;2023-02-15T00:24:34;-0.10;99.90
46378;DHT22;32083;47.360;9.650;2023-02-15T00:27:03;0.00;99.90
46378;DHT22;32083;47.360;9.650;2023-02-15T00:29:30;-0.10;99.90
46378;DHT22;32083;47.360;9.650;2023-02-15T00:32:06;-0.20;99.90
46378;DHT22;32083;47.360;9.650;2023-02-15T00:34:35;-0.10;99.90
46378;DHT22;32083;47.360;9.650;2023-02-15T00:37:04;0.00;99.90
46378;DHT22;32083;47.360;9.650;2023-02-15T00:39:32;0.00;99.90
46378;DHT22;32083;47.360;9.650;2023-02-15T00:42:05;0.00;99.90
46378;DHT22;32083;47.360;9.650;2023-02-15T00:44:34;0.10;99.90
46378;DHT22;32083;47.360;9.650;2023-02-15T00:47:00;0.20;99.90
46378;DHT22;32083;47.360;9.650;2023-02-15T00:49:25;0.10;99.90
46378;DHT22;32083;47.360;9.650;2023-02-15T00:51:53;0.20;99.90
46378;DHT22;32083;47.360;9.650;2023-02-15T00:54:24;0.10;99.90
46378;DHT22;32083;47.360;9.650;2023-02-15T00:56:50;-0.10;99.90
46378;DHT22;32083;47.360;9.650;2023-02-15T00:59:22;-0.10;99.90
46378;DHT22;32083;47.360;9.650;2023-02-15T01:01:50;-0.10;99.90
46378;DHT22;32083;47.360;9.650;2023-02-15T01:04:22;-0.40;99.90
46378;DHT22;32083;47.360;9.650;2023-02-15T01:06:49;-0.40;99.90
46378;DHT22;32083;47.360;9.650;2023-02-15T01:09:18;-0.40;99.90
46378;DHT22;32083;47.360;9.650;2023-02-15T01:11:44;-0.40;99.90
46378;DHT22;32083;47.360;9.650;2023-02-15T01:14:12;-0.40;99.90
46378;DHT22;32083;47.360;9.650;2023-02-15T01:16:41;-0.40;99.90
46378;DHT22;32083;47.360;9.650;2023-02-15T01:19:07;-0.50;99.90
46378;DHT22;32083;47.360;9.650;2023-02-15T01:21:33;-0.70;99.90
46378;DHT22;32083;47.360;9.650;2023-02-15T01:24:00;-0.70;99.90
46378;DHT22;32083;47.360;9.650;2023-02-15T01:26:27;-0.80;99.90
46378;DHT22;32083;47.360;9.650;2023-02-15T01:28:57;-0.70;99.90
46378;DHT22;32083;47.360;9.650;2023-02-15T01:31:22;-0.70;99.90
46378;DHT22;32083;47.360;9.650;2023-02-15T01:33:50;-0.70;99.90
46378;DHT22;32083;47.360;9.650;2023-02-15T01:36:17;-0.70;99.90
46378;DHT22;32083;47.360;9.650;2023-02-15T01:38:44;-0.70;99.90
46378;DHT22;32083;47.360;9.650;2023-02-15T01:41:14;-0.60;99.90
46378;DHT22;32083;47.360;9.650;2023-02-15T01:43:57;-0.60;99.90
46378;DHT22;32083;47.360;9.650;2023-02-15T01:46:40;-0.50;99.90
46378;DHT22;32083;47.360;9.650;2023-02-15T01:49:15;-0.50;99.90
46378;DHT22;32083;47.360;9.650;2023-02-15T01:51:45;-0.50;99.90
46378;DHT22;32083;47.360;9.650;2023-02-15T01:54:25;-0.50;99.90
46378;DHT22;32083;47.360;9.650;2023-02-15T01:56:56;-0.60;99.90
46378;DHT22;32083;47.360;9.650;2023-02-15T01:59:25;-0.60;99.90
46378;DHT22;32083;47.360;9.650;2023-02-15T02:01:52;-0.60;99.90
46378;DHT22;32083;47.360;9.650;2023-02-15T02:04:41;-0.50;99.90
46378;DHT22;32083;47.360;9.650;2023-02-15T02:07:14;-0.50;99.90
46378;DHT22;32083;47.360;9.650;2023-02-15T02:09:41;-0.50;99.90
46378;DHT22;32083;47.360;9.650;2023-02-15T02:12:09;-0.40;99.90
46378;DHT22;32083;47.360;9.650;2023-02-15T02:14:37;-0.40;99.90
46378;DHT22;32083;47.360;9.650;2023-02-15T02:17:24;-0.30;99.90
46378;DHT22;32083;47.360;9.650;2023-02-15T02:26:11;-0.20;99.90
46378;DHT22;32083;47.360;9.650;2023-02-15T02:34:49;-0.20;99.90
46378;DHT22;32083;47.360;9.650;2023-02-15T02:37:30;-0.10;99.90
46378;DHT22;32083;47.360;9.650;2023-02-15T02:43:51;0.00;99.90
46378;DHT22;32083;47.360;9.650;2023-02-15T02:46:50;-0.10;99.90
46378;DHT22;32083;47.360;9.650;2023-02-15T02:49:28;-0.20;99.90
46378;DHT22;32083;47.360;9.650;2023-02-15T02:52:03;-0.30;99.90
46378;DHT22;32083;47.360;9.650;2023-02-15T02:54:30;-0.40;99.90
46378;DHT22;32083;47.360;9.650;2023-02-15T02:56:59;-0.40;99.90
46378;DHT22;32083;47.360;9.650;2023-02-15T02:59:36;-0.40;99.90
46378;DHT22;32083;47.360;9.650;2023-02-15T03:02:34;-0.30;99.90
46378;DHT22;32083;47.360;9.650;2023-02-15T03:05:09;-0.30;99.90
46378;DHT22;32083;47.360;9.650;2023-02-15T03:07:43;-0.20;99.90
46378;DHT22;32083;47.360;9.650;2023-02-15T03:10:14;-0.10;99.90
46378;DHT22;32083;47.360;9.650;2023-02-15T03:12:41;-0.20;99.90
46378;DHT22;32083;47.360;9.650;2023-02-15T03:15:15;-0.20;99.90
46378;DHT22;32083;47.360;9.650;2023-02-15T03:17:43;-0.20;99.90
46378;DHT22;32083;47.360;9.650;2023-02-15T03:20:15;-0.20;99.90
46378;DHT22;32083;47.360;9.650;2023-02-15T03:22:48;-0.10;99.90
46378;DHT22;32083;47.360;9.650;2023-02-15T03:25:44;-0.10;99.90
46378;DHT22;32083;47.360;9.650;2023-02-15T03:28:38;0.00;99.90
46378;DHT22;32083;47.360;9.650;2023-02-15T03:31:15;0.10;99.90
46378;DHT22;32083;47.360;9.650;2023-02-15T03:33:55;0.10;99.90
46378;DHT22;32083;47.360;9.650;2023-02-15T03:42:39;0.30;99.90
46378;DHT22;32083;47.360;9.650;2023-02-15T03:45:11;0.40;99.90
46378;DHT22;32083;47.360;9.650;2023-02-15T03:47:46;0.40;99.90
46378;DHT22;32083;47.360;9.650;2023-02-15T03:50:33;0.30;99.90
46378;DHT22;32083;47.360;9.650;2023-02-15T03:53:21;0.20;99.90
46378;DHT22;32083;47.360;9.650;2023-02-15T03:55:56;0.20;99.90
46378;DHT22;32083;47.360;9.650;2023-02-15T03:58:22;0.20;99.90
46378;DHT22;32083;47.360;9.650;2023-02-15T04:01:34;0.30;99.90
46378;DHT22;32083;47.360;9.650;2023-02-15T04:04:30;0.30;99.90
46378;DHT22;32083;47.360;9.650;2023-02-15T04:07:20;0.40;99.90
46378;DHT22;32083;47.360;9.650;2023-02-15T04:09:49;0.40;99.90
46378;DHT22;32083;47.360;9.650;2023-02-15T04:12:36;0.40;99.90
46378;DHT22;32083;47.360;9.650;2023-02-15T04:15:11;0.30;99.90
46378;DHT22;32083;47.360;9.650;2023-02-15T04:17:57;0.40;99.90
46378;DHT22;32083;47.360;9.650;2023-02-15T04:20:25;0.40;99.90
46378;DHT22;32083;47.360;9.650;2023-02-15T04:23:10;0.50;99.90
46378;DHT22;32083;47.360;9.650;2023-02-15T04:25:54;0.40;99.90
46378;DHT22;32083;47.360;9.650;2023-02-15T04:28:23;0.40;99.90
46378;DHT22;32083;47.360;9.650;2023-02-15T04:30:49;0.30;99.90
46378;DHT22;32083;47.360;9.650;2023-02-15T04:33:15;0.40;99.90
46378;DHT22;32083;47.360;9.650;2023-02-15T04:35:44;0.30;99.90
46378;DHT22;32083;47.360;9.650;2023-02-15T04:38:11;0.40;99.90
46378;DHT22;32083;47.360;9.650;2023-02-15T04:40:41;0.30;99.90
46378;DHT22;32083;47.360;9.650;2023-02-15T04:43:08;0.40;99.90
46378;DHT22;32083;47.360;9.650;2023-02-15T04:45:49;0.40;99.90
46378;DHT22;32083;47.360;9.650;2023-02-15T04:48:26;0.40;99.90
46378;DHT22;32083;47.360;9.650;2023-02-15T04:50:53;0.40;99.90
46378;DHT22;32083;47.360;9.650;2023-02-15T04:53:19;0.50;99.90
46378;DHT22;32083;47.360;9.650;2023-02-15T04:55:44;0.50;99.90
46378;DHT22;32083;47.360;9.650;2023-02-15T04:58:11;0.50;99.90
46378;DHT22;32083;47.360;9.650;2023-02-15T05:00:47;0.50;99.90
46378;DHT22;32083;47.360;9.650;2023-02-15T05:03:16;0.50;99.90
46378;DHT22;32083;47.360;9.650;2023-02-15T05:05:43;0.40;99.90
46378;DHT22;32083;47.360;9.650;2023-02-15T05:08:12;0.30;99.90
46378;DHT22;32083;47.360;9.650;2023-02-15T05:10:39;0.30;99.90
46378;DHT22;32083;47.360;9.650;2023-02-15T05:13:08;0.40;99.90
46378;DHT22;32083;47.360;9.650;2023-02-15T05:15:34;0.40;99.90
46378;DHT22;32083;47.360;9.650;2023-02-15T05:18:01;0.40;99.90
46378;DHT22;32083;47.360;9.650;2023-02-15T05:20:29;0.40;99.90
46378;DHT22;32083;47.360;9.650;2023-02-15T05:22:55;0.30;99.90
46378;DHT22;32083;47.360;9.650;2023-02-15T05:25:27;0.30;99.90
46378;DHT22;32083;47.360;9.650;2023-02-15T05:28:13;0.20;99.90
46378;DHT22;32083;47.360;9.650;2023-02-15T05:31:07;0.20;99.90
46378;DHT22;32083;47.360;9.650;2023-02-15T05:33:43;0.30;99.90
46378;DHT22;32083;47.360;9.650;2023-02-15T05:36:14;0.40;99.90
46378;DHT22;32083;47.360;9.650;2023-02-15T05:38:40;0.40;99.90
46378;DHT22;32083;47.360;9.650;2023-02-15T05:41:06;0.40;99.90
46378;DHT22;32083;47.360;9.650;2023-02-15T05:43:34;0.40;99.90
46378;DHT22;32083;47.360;9.650;2023-02-15T05:46:01;0.40;99.90
46378;DHT22;32083;47.360;9.650;2023-02-15T05:48:33;0.30;99.90
46378;DHT22;32083;47.360;9.650;2023-02-15T05:51:11;0.40;99.90
46378;DHT22;32083;47.360;9.650;2023-02-15T05:53:39;0.40;99.90
46378;DHT22;32083;47.360;9.650;2023-02-15T05:56:06;0.40;99.90
46378;DHT22;32083;47.360;9.650;2023-02-15T05:58:42;0.40;99.90
46378;DHT22;32083;47.360;9.650;2023-02-15T06:01:16;0.40;99.90
46378;DHT22;32083;47.360;9.650;2023-02-15T06:03:44;0.40;99.90
46378;DHT22;32083;47.360;9.650;2023-02-15T06:06:13;0.40;99.90
46378;DHT22;32083;47.360;9.650;2023-02-15T06:08:40;0.40;99.90
46378;DHT22;32083;47.360;9.650;2023-02-15T06:11:09;0.40;99.90
46378;DHT22;32083;47.360;9.650;2023-02-15T06:13:36;0.40;99.90
46378;DHT22;32083;47.360;9.650;2023-02-15T06:16:02;0.40;99.90
46378;DHT22;32083;47.360;9.650;2023-02-15T06:18:49;0.30;99.90
46378;DHT22;32083;47.360;9.650;2023-02-15T06:21:15;0.40;99.90
46378;DHT22;32083;47.360;9.650;2023-02-15T06:23:41;0.40;99.90
46378;DHT22;32083;47.360;9.650;2023-02-15T06:26:06;0.40;99.90
46378;DHT22;32083;47.360;9.650;2023-02-15T06:28:35;0.30;99.90
46378;DHT22;32083;47.360;9.650;2023-02-15T06:31:03;0.30;99.90
46378;DHT22;32083;47.360;9.650;2023-02-15T06:33:44;0.30;99.90
46378;DHT22;32083;47.360;9.650;2023-02-15T06:36:15;0.30;99.90
46378;DHT22;32083;47.360;9.650;2023-02-15T06:38:41;0.20;99.90
46378;DHT22;32083;47.360;9.650;2023-02-15T06:41:10;0.20;99.90
46378;DHT22;32083;47.360;9.650;2023-02-15T06:43:39;0.10;99.90
46378;DHT22;32083;47.360;9.650;2023-02-15T06:46:05;0.20;99.90
46378;DHT22;32083;47.360;9.650;2023-02-15T06:48:33;0.20;99.90
46378;DHT22;32083;47.360;9.650;2023-02-15T06:51:05;0.30;99.90
46378;DHT22;32083;47.360;9.650;2023-02-15T06:53:35;0.20;99.90
46378;DHT22;32083;47.360;9.650;2023-02-15T06:56:07;0.20;99.90
46378;DHT22;32083;47.360;9.650;2023-02-15T06:58:43;0.20;99.90
46378;DHT22;32083;47.360;9.650;2023-02-15T07:01:12;0.10;99.90
46378;DHT22;32083;47.360;9.650;2023-02-15T07:03:39;0.10;99.90
46378;DHT22;32083;47.360;9.650;2023-02-15T07:06:05;0.00;99.90
46378;DHT22;32083;47.360;9.650;2023-02-15T07:08:34;0.00;99.90
46378;DHT22;32083;47.360;9.650;2023-02-15T07:11:01;0.10;99.90
46378;DHT22;32083;47.360;9.650;2023-02-15T07:14:03;0.00;99.90
46378;DHT22;32083;47.360;9.650;2023-02-15T07:16:34;0.00;99.90
46378;DHT22;32083;47.360;9.650;2023-02-15T07:19:05;0.00;99.90
46378;DHT22;32083;47.360;9.650;2023-02-15T07:21:39;0.00;99.90
46378;DHT22;32083;47.360;9.650;2023-02-15T07:24:05;0.00;99.90
46378;DHT22;32083;47.360;9.650;2023-02-15T07:26:32;0.00;99.90
46378;DHT22;32083;47.360;9.650;2023-02-15T07:28:58;0.00;99.90
46378;DHT22;32083;47.360;9.650;2023-02-15T07:31:24;-0.10;99.90
46378;DHT22;32083;47.360;9.650;2023-02-15T07:33:50;-0.20;99.90
46378;DHT22;32083;47.360;9.650;2023-02-15T07:36:16;-0.20;99.90
46378;DHT22;32083;47.360;9.650;2023-02-15T07:38:42;-0.30;99.90
46378;DHT22;32083;47.360;9.650;2023-02-15T07:41:11;-0.30;99.90
46378;DHT22;32083;47.360;9.650;2023-02-15T07:43:39;-0.40;99.90
46378;DHT22;32083;47.360;9.650;2023-02-15T07:46:08;-0.30;99.90
46378;DHT22;32083;47.360;9.650;2023-02-15T07:48:35;-0.20;99.90
46378;DHT22;32083;47.360;9.650;2023-02-15T07:51:03;-0.10;99.90
46378;DHT22;32083;47.360;9.650;2023-02-15T07:53:29;0.00;99.90
46378;DHT22;32083;47.360;9.650;2023-02-15T07:55:59;-0.10;99.90
46378;DHT22;32083;47.360;9.650;2023-02-15T07:58:25;-0.10;99.90
46378;DHT22;32083;47.360;9.650;2023-02-15T08:01:11;-0.10;99.90
46378;DHT22;32083;47.360;9.650;2023-02-15T08:03:37;0.00;99.90
46378;DHT22;32083;47.360;9.650;2023-02-15T08:06:03;0.00;99.90
46378;DHT22;32083;47.360;9.650;2023-02-15T08:08:29;0.00;99.90
46378;DHT22;32083;47.360;9.650;2023-02-15T08:11:22;0.10;99.90
46378;DHT22;32083;47.360;9.650;2023-02-15T08:14:02;0.00;99.90
46378;DHT22;32083;47.360;9.650;2023-02-15T08:16:41;-0.10;99.90
46378;DHT22;32083;47.360;9.650;2023-02-15T08:21:36;-0.20;99.90
46378;DHT22;32083;47.360;9.650;2023-02-15T08:24:04;-0.10;99.90
46378;DHT22;32083;47.360;9.650;2023-02-15T08:26:31;-0.10;99.90
46378;DHT22;32083;47.360;9.650;2023-02-15T08:28:58;-0.10;99.90
46378;DHT22;32083;47.360;9.650;2023-02-15T08:31:25;0.00;99.90
46378;DHT22;32083;47.360;9.650;2023-02-15T08:33:53;0.00;99.90
46378;DHT22;32083;47.360;9.650;2023-02-15T08:36:22;-0.10;99.90
46378;DHT22;32083;47.360;9.650;2023-02-15T08:38:48;0.00;99.90
46378;DHT22;32083;47.360;9.650;2023-02-15T08:41:16;0.00;99.90
46378;DHT22;32083;47.360;9.650;2023-02-15T08:43:43;0.10;99.90
46378;DHT22;32083;47.360;9.650;2023-02-15T08:46:10;0.10;99.90
46378;DHT22;32083;47.360;9.650;2023-02-15T08:48:37;0.00;99.90
46378;DHT22;32083;47.360;9.650;2023-02-15T08:51:17;0.00;99.90
46378;DHT22;32083;47.360;9.650;2023-02-15T08:53:47;0.10;99.90
46378;DHT22;32083;47.360;9.650;2023-02-15T08:56:17;0.10;99.90
46378;DHT22;32083;47.360;9.650;2023-02-15T08:58:43;0.10;99.90
46378;DHT22;32083;47.360;9.650;2023-02-15T09:01:14;-0.10;99.90
46378;DHT22;32083;47.360;9.650;2023-02-15T09:03:44;-0.10;99.90
46378;DHT22;32083;47.360;9.650;2023-02-15T09:06:10;0.00;99.90
46378;DHT22;32083;47.360;9.650;2023-02-15T09:08:36;0.00;99.90
46378;DHT22;32083;47.360;9.650;2023-02-15T09:11:23;0.10;99.90
46378;DHT22;32083;47.360;9.650;2023-02-15T09:14:03;0.10;99.90
46378;DHT22;32083;47.360;9.650;2023-02-15T09:16:32;0.00;99.90
46378;DHT22;32083;47.360;9.650;2023-02-15T09:18:59;0.10;99.90
46378;DHT22;32083;47.360;9.650;2023-02-15T09:21:27;0.10;99.90
46378;DHT22;32083;47.360;9.650;2023-02-15T09:23:59;-0.10;99.90
46378;DHT22;32083;47.360;9.650;2023-02-15T09:26:26;-0.20;99.90
46378;DHT22;32083;47.360;9.650;2023-02-15T09:28:55;-0.20;99.90
46378;DHT22;32083;47.360;9.650;2023-02-15T09:31:24;-0.10;99.90
46378;DHT22;32083;47.360;9.650;2023-02-15T09:33:50;0.10;99.90
46378;DHT22;32083;47.360;9.650;2023-02-15T09:36:24;0.10;99.90
46378;DHT22;32083;47.360;9.650;2023-02-15T09:44:56;0.30;99.90
46378;DHT22;32083;47.360;9.650;2023-02-15T09:55:34;0.30;99.90
46378;DHT22;32083;47.360;9.650;2023-02-15T09:58:37;0.30;99.90
46378;DHT22;32083;47.360;9.650;2023-02-15T10:26:21;0.90;99.90
46378;DHT22;32083;47.360;9.650;2023-02-15T10:29:07;0.90;99.90
46378;DHT22;32083;47.360;9.650;2023-02-15T10:31:51;0.70;99.90
46378;DHT22;32083;47.360;9.650;2023-02-15T10:34:31;0.80;99.90
46378;DHT22;32083;47.360;9.650;2023-02-15T10:42:27;0.90;99.90
46378;DHT22;32083;47.360;9.650;2023-02-15T11:06:58;1.20;99.90
46378;DHT22;32083;47.360;9.650;2023-02-15T11:09:33;1.10;99.90
46378;DHT22;32083;47.360;9.650;2023-02-15T11:12:01;1.20;99.90
46378;DHT22;32083;47.360;9.650;2023-02-15T11:17:09;1.40;99.90
46378;DHT22;32083;47.360;9.650;2023-02-15T11:19:39;1.20;99.90
46378;DHT22;32083;47.360;9.650;2023-02-15T11:22:10;1.40;99.90
46378;DHT22;32083;47.360;9.650;2023-02-15T11:24:43;1.30;99.90
46378;DHT22;32083;47.360;9.650;2023-02-15T11:27:22;1.40;99.90
46378;DHT22;32083;47.360;9.650;2023-02-15T11:32:31;1.60;99.90
46378;DHT22;32083;47.360;9.650;2023-02-15T11:38:22;1.70;99.90
46378;DHT22;32083;47.360;9.650;2023-02-15T11:40:55;1.80;99.90
46378;DHT22;32083;47.360;9.650;2023-02-15T11:43:43;1.70;99.90
46378;DHT22;32083;47.360;9.650;2023-02-15T11:46:12;1.90;99.90
46378;DHT22;32083;47.360;9.650;2023-02-15T11:48:39;2.00;99.90
46378;DHT22;32083;47.360;9.650;2023-02-15T11:51:05;2.00;99.90
46378;DHT22;32083;47.360;9.650;2023-02-15T11:53:37;2.00;99.90
46378;DHT22;32083;47.360;9.650;2023-02-15T11:56:03;2.20;99.90
46378;DHT22;32083;47.360;9.650;2023-02-15T11:58:47;2.00;99.90
46378;DHT22;32083;47.360;9.650;2023-02-15T12:01:22;2.30;99.90
46378;DHT22;32083;47.360;9.650;2023-02-15T12:06:54;2.20;99.90
46378;DHT22;32083;47.360;9.650;2023-02-15T12:10:16;2.40;99.90
46378;DHT22;32083;47.360;9.650;2023-02-15T12:12:37;2.40;99.90
46378;DHT22;32083;47.360;9.650;2023-02-15T12:15:08;2.50;99.90
46378;DHT22;32083;47.360;9.650;2023-02-15T12:17:52;2.60;99.90
46378;DHT22;32083;47.360;9.650;2023-02-15T12:22:51;2.50;99.90
46378;DHT22;32083;47.360;9.650;2023-02-15T12:25:51;2.50;99.90
46378;DHT22;32083;47.360;9.650;2023-02-15T12:28:42;2.50;99.90
46378;DHT22;32083;47.360;9.650;2023-02-15T12:31:23;2.70;99.90
46378;DHT22;32083;47.360;9.650;2023-02-15T12:33:56;2.70;99.90
46378;DHT22;32083;47.360;9.650;2023-02-15T12:36:40;2.70;99.90
46378;DHT22;32083;47.360;9.650;2023-02-15T12:39:18;2.90;99.90
46378;DHT22;32083;47.360;9.650;2023-02-15T12:44:25;2.70;99.90
46378;DHT22;32083;47.360;9.650;2023-02-15T12:49:24;2.80;99.90
46378;DHT22;32083;47.360;9.650;2023-02-15T12:51:53;2.80;99.90
46378;DHT22;32083;47.360;9.650;2023-02-15T12:54:36;2.80;99.90
46378;DHT22;32083;47.360;9.650;2023-02-15T12:57:15;2.90;99.90
46378;DHT22;32083;47.360;9.650;2023-02-15T12:59:59;3.00;99.90
46378;DHT22;32083;47.360;9.650;2023-02-15T13:02:37;3.10;99.90
46378;DHT22;32083;47.360;9.650;2023-02-15T13:05:26;3.20;99.90
46378;DHT22;32083;47.360;9.650;2023-02-15T13:08:01;3.20;99.90
46378;DHT22;32083;47.360;9.650;2023-02-15T13:12:57;3.40;99.90
46378;DHT22;32083;47.360;9.650;2023-02-15T13:15:36;3.40;99.90
46378;DHT22;32083;47.360;9.650;2023-02-15T13:18:05;3.50;99.90
46378;DHT22;32083;47.360;9.650;2023-02-15T13:20:32;3.50;99.90
46378;DHT22;32083;47.360;9.650;2023-02-15T13:23:03;3.50;99.90
46378;DHT22;32083;47.360;9.650;2023-02-15T13:25:39;3.60;99.90
46378;DHT22;32083;47.360;9.650;2023-02-15T13:28:06;3.60;99.90
46378;DHT22;32083;47.360;9.650;2023-02-15T13:30:40;3.60;99.90
46378;DHT22;32083;47.360;9.650;2023-02-15T13:38:23;3.70;99.90
46378;DHT22;32083;47.360;9.650;2023-02-15T13:41:06;3.80;99.90
46378;DHT22;32083;47.360;9.650;2023-02-15T13:46:52;4.10;99.90
46378;DHT22;32083;47.360;9.650;2023-02-15T13:52:22;4.20;99.90
46378;DHT22;32083;47.360;9.650;2023-02-15T13:58:53;4.20;99.90
46378;DHT22;32083;47.360;9.650;2023-02-15T14:04:13;4.20;99.90
46378;DHT22;32083;47.360;9.650;2023-02-15T14:12:10;4.50;99.90
46378;DHT22;32083;47.360;9.650;2023-02-15T14:14:57;4.60;99.90
46378;DHT22;32083;47.360;9.650;2023-02-15T14:23:28;4.70;99.90
46378;DHT22;32083;47.360;9.650;2023-02-15T14:26:02;4.80;99.90
46378;DHT22;32083;47.360;9.650;2023-02-15T14:31:19;4.90;99.90
46378;DHT22;32083;47.360;9.650;2023-02-15T14:33:54;4.90;99.90
46378;DHT22;32083;47.360;9.650;2023-02-15T14:36:21;5.00;99.90
46378;DHT22;32083;47.360;9.650;2023-02-15T14:45:30;5.20;99.90
46378;DHT22;32083;47.360;9.650;2023-02-15T14:47:40;5.30;99.90
46378;DHT22;32083;47.360;9.650;2023-02-15T14:59:00;5.30;99.90
46378;DHT22;32083;47.360;9.650;2023-02-15T15:01:32;5.30;99.90
46378;DHT22;32083;47.360;9.650;2023-02-15T15:04:44;5.30;99.90
46378;DHT22;32083;47.360;9.650;2023-02-15T15:09:39;5.30;99.90
46378;DHT22;32083;47.360;9.650;2023-02-15T15:14:47;5.20;99.90
46378;DHT22;32083;47.360;9.650;2023-02-15T15:22:30;5.20;99.90
46378;DHT22;32083;47.360;9.650;2023-02-15T15:27:43;5.10;99.90
46378;DHT22;32083;47.360;9.650;2023-02-15T15:32:47;5.00;99.90
46378;DHT22;32083;47.360;9.650;2023-02-15T15:35:22;5.00;99.90
46378;DHT22;32083;47.360;9.650;2023-02-15T15:38:03;5.00;99.90
46378;DHT22;32083;47.360;9.650;2023-02-15T15:40:46;4.90;99.90
46378;DHT22;32083;47.360;9.650;2023-02-15T15:49:10;4.80;99.90
46378;DHT22;32083;47.360;9.650;2023-02-15T15:51:40;4.80;99.90
46378;DHT22;32083;47.360;9.650;2023-02-15T15:54:20;4.70;99.90
46378;DHT22;32083;47.360;9.650;2023-02-15T15:56:55;4.70;99.90
46378;DHT22;32083;47.360;9.650;2023-02-15T15:59:30;4.70;99.90
46378;DHT22;32083;47.360;9.650;2023-02-15T16:02:04;4.60;99.90
46378;DHT22;32083;47.360;9.650;2023-02-15T16:04:31;4.60;99.90
46378;DHT22;32083;47.360;9.650;2023-02-15T16:10:04;4.60;99.90
46378;DHT22;32083;47.360;9.650;2023-02-15T16:12:34;4.60;99.90
46378;DHT22;32083;47.360;9.650;2023-02-15T16:15:04;4.50;99.90
46378;DHT22;32083;47.360;9.650;2023-02-15T16:17:37;4.50;99.90
46378;DHT22;32083;47.360;9.650;2023-02-15T16:20:20;4.50;99.90
46378;DHT22;32083;47.360;9.650;2023-02-15T16:22:49;4.40;99.90
46378;DHT22;32083;47.360;9.650;2023-02-15T16:25:34;4.40;99.90
46378;DHT22;32083;47.360;9.650;2023-02-15T16:28:13;4.30;99.90
46378;DHT22;32083;47.360;9.650;2023-02-15T16:30:40;4.30;99.90
46378;DHT22;32083;47.360;9.650;2023-02-15T16:33:17;4.30;99.90
46378;DHT22;32083;47.360;9.650;2023-02-15T16:35:58;4.10;99.90
46378;DHT22;32083;47.360;9.650;2023-02-15T16:41:22;4.10;99.90
46378;DHT22;32083;47.360;9.650;2023-02-15T16:43:49;4.00;99.90
46378;DHT22;32083;47.360;9.650;2023-02-15T16:46:22;4.00;99.90
46378;DHT22;32083;47.360;9.650;2023-02-15T16:48:51;4.00;99.90
46378;DHT22;32083;47.360;9.650;2023-02-15T16:51:21;3.90;99.90
46378;DHT22;32083;47.360;9.650;2023-02-15T16:53:48;3.90;99.90
46378;DHT22;32083;47.360;9.650;2023-02-15T16:56:14;3.80;99.90
46378;DHT22;32083;47.360;9.650;2023-02-15T16:58:43;3.80;99.90
46378;DHT22;32083;47.360;9.650;2023-02-15T17:01:12;3.80;99.90
46378;DHT22;32083;47.360;9.650;2023-02-15T17:03:39;3.80;99.90
46378;DHT22;32083;47.360;9.650;2023-02-15T17:06:22;3.80;99.90
46378;DHT22;32083;47.360;9.650;2023-02-15T17:08:48;3.70;99.90
46378;DHT22;32083;47.360;9.650;2023-02-15T17:11:35;3.70;99.90
46378;DHT22;32083;47.360;9.650;2023-02-15T17:16:54;3.50;99.90
46378;DHT22;32083;47.360;9.650;2023-02-15T17:19:48;3.40;99.90
46378;DHT22;32083;47.360;9.650;2023-02-15T17:22:25;3.40;99.90
46378;DHT22;32083;47.360;9.650;2023-02-15T17:25:00;3.30;99.90
46378;DHT22;32083;47.360;9.650;2023-02-15T17:27:29;3.20;99.90
46378;DHT22;32083;47.360;9.650;2023-02-15T17:30:48;3.20;99.90
46378;DHT22;32083;47.360;9.650;2023-02-15T17:32:55;3.20;99.90
46378;DHT22;32083;47.360;9.650;2023-02-15T17:35:23;3.10;99.90
46378;DHT22;32083;47.360;9.650;2023-02-15T17:37:54;3.10;99.90
46378;DHT22;32083;47.360;9.650;2023-02-15T17:40:28;3.10;99.90
46378;DHT22;32083;47.360;9.650;2023-02-15T17:42:55;3.00;99.90
46378;DHT22;32083;47.360;9.650;2023-02-15T17:45:22;3.00;99.90
46378;DHT22;32083;47.360;9.650;2023-02-15T17:47:51;2.90;99.90
46378;DHT22;32083;47.360;9.650;2023-02-15T17:50:22;2.90;99.90
46378;DHT22;32083;47.360;9.650;2023-02-15T17:52:48;2.80;99.90
46378;DHT22;32083;47.360;9.650;2023-02-15T17:55:18;2.80;99.90
46378;DHT22;32083;47.360;9.650;2023-02-15T17:58:02;2.70;99.90
46378;DHT22;32083;47.360;9.650;2023-02-15T18:00:30;2.60;99.90
46378;DHT22;32083;47.360;9.650;2023-02-15T18:03:16;2.60;99.90
46378;DHT22;32083;47.360;9.650;2023-02-15T18:06:01;2.60;99.90
46378;DHT22;32083;47.360;9.650;2023-02-15T18:08:45;2.50;99.90
46378;DHT22;32083;47.360;9.650;2023-02-15T18:11:29;2.50;99.90
46378;DHT22;32083;47.360;9.650;2023-02-15T18:14:03;2.40;99.90
46378;DHT22;32083;47.360;9.650;2023-02-15T18:16:34;2.40;99.90
46378;DHT22;32083;47.360;9.650;2023-02-15T18:19:02;2.30;99.90
46378;DHT22;32083;47.360;9.650;2023-02-15T18:21:30;2.30;99.90
46378;DHT22;32083;47.360;9.650;2023-02-15T18:23:56;2.30;99.90
46378;DHT22;32083;47.360;9.650;2023-02-15T18:26:23;2.20;99.90
46378;DHT22;32083;47.360;9.650;2023-02-15T18:28:50;2.20;99.90
46378;DHT22;32083;47.360;9.650;2023-02-15T18:31:17;2.20;99.90
46378;DHT22;32083;47.360;9.650;2023-02-15T18:33:47;2.10;99.90
46378;DHT22;32083;47.360;9.650;2023-02-15T18:36:21;2.10;99.90
46378;DHT22;32083;47.360;9.650;2023-02-15T18:38:49;2.10;99.90
46378;DHT22;32083;47.360;9.650;2023-02-15T18:41:19;2.10;99.90
46378;DHT22;32083;47.360;9.650;2023-02-15T18:43:46;2.10;99.90
46378;DHT22;32083;47.360;9.650;2023-02-15T18:46:14;2.10;99.90
46378;DHT22;32083;47.360;9.650;2023-02-15T18:48:40;2.00;99.90
46378;DHT22;32083;47.360;9.650;2023-02-15T18:51:19;2.00;99.90
46378;DHT22;32083;47.360;9.650;2023-02-15T18:53:49;2.00;99.90
46378;DHT22;32083;47.360;9.650;2023-02-15T18:56:17;1.90;99.90
46378;DHT22;32083;47.360;9.650;2023-02-15T18:58:44;1.90;99.90
46378;DHT22;32083;47.360;9.650;2023-02-15T19:01:19;1.90;99.90
46378;DHT22;32083;47.360;9.650;2023-02-15T19:03:47;1.80;99.90
46378;DHT22;32083;47.360;9.650;2023-02-15T19:06:18;1.80;99.90
46378;DHT22;32083;47.360;9.650;2023-02-15T19:08:47;1.70;99.90
46378;DHT22;32083;47.360;9.650;2023-02-15T19:11:22;1.80;99.90
46378;DHT22;32083;47.360;9.650;2023-02-15T19:13:49;1.80;99.90
46378;DHT22;32083;47.360;9.650;2023-02-15T19:16:31;1.70;99.90
46378;DHT22;32083;47.360;9.650;2023-02-15T19:18:58;1.70;99.90
46378;DHT22;32083;47.360;9.650;2023-02-15T19:21:26;1.70;99.90
46378;DHT22;32083;47.360;9.650;2023-02-15T19:24:03;1.60;99.90
46378;DHT22;32083;47.360;9.650;2023-02-15T19:26:33;1.60;99.90
46378;DHT22;32083;47.360;9.650;2023-02-15T19:29:01;1.50;99.90
46378;DHT22;32083;47.360;9.650;2023-02-15T19:31:27;1.50;99.90